createdAt,value
2019-02-25T00:04:35.745Z,62.30
2019-02-25T00:09:39.329Z,63.30
2019-02-25T00:14:43.392Z,63.30
2019-02-25T00:19:47.033Z,64.00
2019-02-25T00:24:50.697Z,63.60
2019-02-25T00:29:54.276Z,63.30
2019-02-25T00:34:58.175Z,63.40
2019-02-25T00:40:01.757Z,61.90
2019-02-25T00:45:08.691Z,62.10
2019-02-25T00:50:19.893Z,63.50
2019-02-25T00:55:23.826Z,64.70
2019-02-25T01:00:27.704Z,64.00
2019-02-25T01:05:31.427Z,64.90
2019-02-25T01:10:35.076Z,64.70
2019-02-25T01:15:38.672Z,65.40
2019-02-25T01:20:42.621Z,65.70
2019-02-25T01:25:46.213Z,65.30
2019-02-25T01:30:49.786Z,65.90
2019-02-25T01:35:54.033Z,65.10
2019-02-25T01:40:57.617Z,65.60
2019-02-25T01:46:01.264Z,66.30
2019-02-25T01:51:04.954Z,66.90
2019-02-25T01:56:08.673Z,66.00
2019-02-25T02:01:12.249Z,65.40
2019-02-25T02:06:15.833Z,65.20
2019-02-25T02:11:19.430Z,64.90
2019-02-25T02:16:23.086Z,65.30
2019-02-25T02:21:26.673Z,66.20
2019-02-25T02:26:30.253Z,65.40
2019-02-25T02:31:33.918Z,65.80
2019-02-25T02:36:37.881Z,66.40
2019-02-25T02:42:01.688Z,65.20
2019-02-25T02:47:14.103Z,67.40
2019-02-25T02:52:17.681Z,67.50
2019-02-25T02:57:21.273Z,67.00
2019-02-25T03:02:24.858Z,66.00
2019-02-25T03:07:28.445Z,66.50
2019-02-25T03:12:32.025Z,67.40
2019-02-25T03:17:35.618Z,67.30
2019-02-25T03:22:39.341Z,68.00
2019-02-25T03:27:42.997Z,69.90
2019-02-25T03:32:47.004Z,68.70
2019-02-25T03:37:50.741Z,67.80
2019-02-25T03:42:54.332Z,67.70
2019-02-25T03:47:57.908Z,67.90
2019-02-25T03:53:01.789Z,66.90
2019-02-25T03:58:05.506Z,66.80
2019-02-25T04:03:09.476Z,66.30
2019-02-25T04:08:13.053Z,67.20
2019-02-25T04:13:16.650Z,67.20
2019-02-25T04:18:20.650Z,68.30
2019-02-25T04:23:24.303Z,67.80
2019-02-25T04:28:27.891Z,68.30
2019-02-25T04:33:31.481Z,68.20
2019-02-25T04:38:35.411Z,68.50
2019-02-25T04:43:38.997Z,69.10
2019-02-25T04:48:42.578Z,69.10
2019-02-25T04:53:46.229Z,70.20
2019-02-25T04:58:49.823Z,69.30
2019-02-25T05:03:53.765Z,69.00
2019-02-25T05:08:57.760Z,68.80
2019-02-25T05:14:01.345Z,69.50
2019-02-25T05:19:04.995Z,69.70
2019-02-25T05:24:08.572Z,70.10
2019-02-25T05:29:12.230Z,70.40
2019-02-25T05:34:15.833Z,70.50
2019-02-25T05:39:19.430Z,70.90
2019-02-25T05:44:23.069Z,70.70
2019-02-25T05:49:27.011Z,70.50
2019-02-25T05:54:30.911Z,70.60
2019-02-25T05:59:34.825Z,69.80
2019-02-25T06:04:38.502Z,70.00
2019-02-25T06:09:42.144Z,70.40
2019-02-25T06:14:46.208Z,70.90
2019-02-25T06:19:49.792Z,72.00
2019-02-25T06:24:53.388Z,71.90
2019-02-25T06:29:57.042Z,72.30
2019-02-25T06:35:00.985Z,71.90
2019-02-25T06:40:06.413Z,71.00
2019-02-25T06:45:12.903Z,70.10
2019-02-25T06:50:16.572Z,70.30
2019-02-25T06:55:20.221Z,70.40
2019-02-25T07:00:24.208Z,68.80
2019-02-25T07:05:32.016Z,69.50
2019-02-25T07:10:40.375Z,68.90
2019-02-25T07:15:51.678Z,68.20
2019-02-25T07:20:56.910Z,66.50
2019-02-25T07:26:04.569Z,66.40
2019-02-25T07:31:19.192Z,67.40
2019-02-25T07:36:36.763Z,66.40
2019-02-25T07:41:44.637Z,67.10
2019-02-25T07:47:06.052Z,65.90
2019-02-25T07:52:11.408Z,63.40
2019-02-25T07:57:34.945Z,63.40
2019-02-25T08:02:43.118Z,63.30
2019-02-25T08:08:03.349Z,60.90
2019-02-25T08:13:23.923Z,58.70
2019-02-25T08:18:32.252Z,55.70
2019-02-25T08:23:37.516Z,52.80
2019-02-25T08:28:43.038Z,51.00
2019-02-25T08:34:06.070Z,45.10
2019-02-25T08:39:20.645Z,44.20
2019-02-25T08:44:38.150Z,40.00
2019-02-25T08:49:43.885Z,39.60
2019-02-25T08:54:47.886Z,39.30
2019-02-25T08:59:51.925Z,37.50
2019-02-25T09:04:55.585Z,37.60
2019-02-25T09:09:59.233Z,35.30
2019-02-25T09:15:02.933Z,33.50
2019-02-25T09:20:06.666Z,33.40
2019-02-25T09:25:13.245Z,33.10
2019-02-25T09:30:18.954Z,31.20
2019-02-25T09:35:22.534Z,31.40
2019-02-25T09:40:26.122Z,31.30
2019-02-25T09:45:29.771Z,30.00
2019-02-25T09:50:33.439Z,30.00
2019-02-25T09:55:37.163Z,28.60
2019-02-25T10:00:41.145Z,28.90
2019-02-25T10:05:46.254Z,28.30
2019-02-25T10:10:50.436Z,26.60
2019-02-25T10:15:54.025Z,25.40
2019-02-25T10:20:57.757Z,25.60
2019-02-25T10:26:01.419Z,24.10
2019-02-25T10:31:05.440Z,24.00
2019-02-25T10:36:09.160Z,23.90
2019-02-25T10:41:13.066Z,23.20
2019-02-25T10:46:17.704Z,22.40
2019-02-25T10:51:21.745Z,21.40
2019-02-25T10:56:34.305Z,20.70
2019-02-25T11:01:39.243Z,19.40
2019-02-25T11:06:43.366Z,20.00
2019-02-25T11:11:48.563Z,21.60
2019-02-25T11:16:53.029Z,20.60
2019-02-25T11:21:56.607Z,20.30
2019-02-25T11:27:01.066Z,21.30
2019-02-25T11:32:06.297Z,21.40
2019-02-25T11:37:09.966Z,21.60
2019-02-25T11:42:16.428Z,20.70
2019-02-25T11:47:18.859Z,20.00
2019-02-25T11:52:22.604Z,20.80
2019-02-25T11:57:26.790Z,21.30
2019-02-25T12:02:30.361Z,21.00
2019-02-25T12:07:34.035Z,20.40
2019-02-25T12:12:37.761Z,21.00
2019-02-25T12:17:41.412Z,19.30
2019-02-25T12:22:45.069Z,18.40
2019-02-25T12:27:48.996Z,17.70
2019-02-25T12:32:52.719Z,17.20
2019-02-25T12:37:56.371Z,18.40
2019-02-25T12:42:59.907Z,17.50
2019-02-25T12:48:03.626Z,18.10
2019-02-25T12:53:07.632Z,18.00
2019-02-25T12:58:11.245Z,18.00
2019-02-25T13:03:15.294Z,17.20
2019-02-25T13:08:18.872Z,17.90
2019-02-25T13:13:22.836Z,18.70
2019-02-25T13:18:26.740Z,18.20
2019-02-25T13:23:30.326Z,18.30
2019-02-25T13:28:33.955Z,19.00
2019-02-25T13:33:37.554Z,19.00
2019-02-25T13:38:41.138Z,19.20
2019-02-25T13:43:45.161Z,19.30
2019-02-25T13:48:48.748Z,19.60
2019-02-25T13:53:52.409Z,20.10
2019-02-25T13:58:55.993Z,20.30
2019-02-25T14:03:59.658Z,20.60
2019-02-25T14:09:04.945Z,20.00
2019-02-25T14:14:08.604Z,20.70
2019-02-25T14:19:12.929Z,21.50
2019-02-25T14:24:18.422Z,21.40
2019-02-25T14:29:26.235Z,21.30
2019-02-25T14:34:27.808Z,22.00
2019-02-25T14:39:32.959Z,22.40
2019-02-25T14:44:38.088Z,23.20
2019-02-25T14:49:42.920Z,24.50
2019-02-25T14:54:46.634Z,24.30
2019-02-25T14:59:50.283Z,24.20
2019-02-25T15:04:54.511Z,25.30
2019-02-25T15:09:59.969Z,25.00
2019-02-25T15:15:04.841Z,26.20
2019-02-25T15:20:12.646Z,25.40
2019-02-25T15:25:18.126Z,26.10
2019-02-25T15:30:30.824Z,26.90
2019-02-25T15:35:36.971Z,27.30
2019-02-25T15:40:40.379Z,27.50
2019-02-25T15:45:45.260Z,28.10
2019-02-25T15:50:52.970Z,28.80
2019-02-25T15:56:01.069Z,29.40
2019-02-25T16:01:02.949Z,29.80
2019-02-25T16:06:08.362Z,33.10
2019-02-25T16:11:14.040Z,33.70
2019-02-25T16:16:19.999Z,35.70
2019-02-25T16:21:24.467Z,38.30
2019-02-25T16:26:29.220Z,39.80
2019-02-25T16:31:33.719Z,40.60
2019-02-25T16:36:38.123Z,41.80
2019-02-25T16:41:43.480Z,43.00
2019-02-25T16:46:48.957Z,45.10
2019-02-25T16:51:53.185Z,46.50
2019-02-25T16:56:58.048Z,48.40
2019-02-25T17:02:02.307Z,50.50
2019-02-25T17:07:06.929Z,51.30
2019-02-25T17:12:10.584Z,51.80
2019-02-25T17:17:14.242Z,53.20
2019-02-25T17:22:17.894Z,54.00
2019-02-25T17:27:21.481Z,54.90
2019-02-25T17:32:25.531Z,55.80
2019-02-25T17:37:31.371Z,56.80
2019-02-25T17:42:34.807Z,56.60
2019-02-25T17:47:39.671Z,56.50
2019-02-25T17:52:45.162Z,56.50
2019-02-25T17:57:50.327Z,56.80
2019-02-25T18:02:56.680Z,57.20
2019-02-25T18:08:00.553Z,57.80
2019-02-25T18:13:06.705Z,58.00
2019-02-25T18:18:12.536Z,58.30
2019-02-25T18:23:15.845Z,59.00
2019-02-25T18:28:20.143Z,59.60
2019-02-25T18:33:26.888Z,59.80
2019-02-25T18:38:31.682Z,60.70
2019-02-25T18:43:35.468Z,60.80
2019-02-25T18:48:40.710Z,61.50
2019-02-25T18:53:44.826Z,61.30
2019-02-25T18:58:48.644Z,61.20
2019-02-25T19:03:54.311Z,61.40
2019-02-25T19:08:58.304Z,62.30
2019-02-25T19:14:03.696Z,63.60
2019-02-25T19:19:07.963Z,63.50
2019-02-25T19:24:14.304Z,63.20
2019-02-25T19:29:19.609Z,63.40
2019-02-25T19:34:23.596Z,64.40
2019-02-25T19:39:27.264Z,64.00
2019-02-25T19:44:32.105Z,64.40
2019-02-25T19:49:37.131Z,65.80
2019-02-25T19:54:43.352Z,66.30
2019-02-25T19:59:50.265Z,67.30
2019-02-25T20:04:52.482Z,66.80
2019-02-25T20:09:57.946Z,66.90
2019-02-25T20:15:01.850Z,68.70
2019-02-25T20:20:10.981Z,69.30
2019-02-25T20:25:16.825Z,68.20
2019-02-25T20:30:21.950Z,68.40
2019-02-25T20:35:27.263Z,68.40
2019-02-25T20:40:32.998Z,69.40
2019-02-25T20:45:37.768Z,68.50
2019-02-25T20:50:41.438Z,69.50
2019-02-25T20:55:45.193Z,69.10
2019-02-25T21:00:50.917Z,70.40
2019-02-25T21:05:54.750Z,69.70
2019-02-25T21:10:59.895Z,71.10
2019-02-25T21:16:04.878Z,70.10
2019-02-25T21:21:11.273Z,71.00
2019-02-25T21:26:14.228Z,71.50
2019-02-25T21:31:19.556Z,71.10
2019-02-25T21:36:23.113Z,70.70
2019-02-25T21:41:26.770Z,70.70
2019-02-25T21:46:31.596Z,70.30
2019-02-25T21:51:36.887Z,70.30
2019-02-25T21:56:41.293Z,69.80
2019-02-25T22:01:44.949Z,69.50
2019-02-25T22:06:51.017Z,70.10
2019-02-25T22:11:54.582Z,70.10
2019-02-25T22:16:58.922Z,69.40
2019-02-25T22:22:04.954Z,69.50
2019-02-25T22:27:08.916Z,70.00
2019-02-25T22:32:12.759Z,70.10
2019-02-25T22:37:17.486Z,70.60
2019-02-25T22:42:21.569Z,70.00
2019-02-25T22:47:25.507Z,70.20
2019-02-25T22:52:31.408Z,69.20
2019-02-25T22:57:35.069Z,68.30
2019-02-25T23:02:41.192Z,69.60
2019-02-25T23:07:45.950Z,69.90
2019-02-25T23:12:49.969Z,71.50
2019-02-25T23:17:53.545Z,73.10
2019-02-25T23:22:59.489Z,72.00
2019-02-25T23:28:02.915Z,71.10
2019-02-25T23:33:08.030Z,72.60
2019-02-25T23:38:11.756Z,72.20
2019-02-25T23:43:16.736Z,72.30
2019-02-25T23:48:20.570Z,71.60
2019-02-25T23:53:26.094Z,73.10
2019-02-25T23:58:29.369Z,74.20
